sensor_id;sensor_type;location;lat;lon;timestamp;temperature;humidity
21672;DHT22;10997;52.242;8.168;2023-07-13T00:03:08;16.40;99.90
21672;DHT22;10997;52.242;8.168;2023-07-13T00:08:09;16.40;99.90
21672;DHT22;10997;52.242;8.168;2023-07-13T00:13:11;16.40;99.90
21672;DHT22;10997;52.242;8.168;2023-07-13T00:18:12;16.40;99.90
21672;DHT22;10997;52.242;8.168;2023-07-13T00:23:13;16.30;99.90
21672;DHT22;10997;52.242;8.168;2023-07-13T00:28:13;16.30;99.90
21672;DHT22;10997;52.242;8.168;2023-07-13T00:33:14;16.40;99.90
21672;DHT22;10997;52.242;8.168;2023-07-13T00:38:15;16.30;99.90
21672;DHT22;10997;52.242;8.168;2023-07-13T00:43:21;16.20;99.90
21672;DHT22;10997;52.242;8.168;2023-07-13T00:48:25;16.20;99.90
21672;DHT22;10997;52.242;8.168;2023-07-13T00:53:29;16.10;99.90
21672;DHT22;10997;52.242;8.168;2023-07-13T00:58:31;16.10;99.90
21672;DHT22;10997;52.242;8.168;2023-07-13T01:03:32;16.00;99.90
21672;DHT22;10997;52.242;8.168;2023-07-13T01:08:36;16.00;99.90
21672;DHT22;10997;52.242;8.168;2023-07-13T01:13:36;15.90;99.90
21672;DHT22;10997;52.242;8.168;2023-07-13T01:18:37;15.80;99.90
21672;DHT22;10997;52.242;8.168;2023-07-13T01:23:38;15.80;99.90
21672;DHT22;10997;52.242;8.168;2023-07-13T01:28:39;15.70;99.90
21672;DHT22;10997;52.242;8.168;2023-07-13T01:33:40;15.70;99.90
21672;DHT22;10997;52.242;8.168;2023-07-13T01:38:41;15.60;99.90
21672;DHT22;10997;52.242;8.168;2023-07-13T01:43:42;15.60;99.90
21672;DHT22;10997;52.242;8.168;2023-07-13T01:48:42;15.50;99.90
21672;DHT22;10997;52.242;8.168;2023-07-13T01:53:43;15.50;99.90
21672;DHT22;10997;52.242;8.168;2023-07-13T01:58:45;15.50;99.90
21672;DHT22;10997;52.242;8.168;2023-07-13T02:03:45;15.50;99.90
21672;DHT22;10997;52.242;8.168;2023-07-13T02:08:47;15.50;99.90
21672;DHT22;10997;52.242;8.168;2023-07-13T02:13:47;15.40;99.90
21672;DHT22;10997;52.242;8.168;2023-07-13T02:18:48;15.40;99.90
21672;DHT22;10997;52.242;8.168;2023-07-13T02:23:48;15.30;99.90
21672;DHT22;10997;52.242;8.168;2023-07-13T02:28:49;15.30;99.90
21672;DHT22;10997;52.242;8.168;2023-07-13T02:33:50;15.20;99.90
21672;DHT22;10997;52.242;8.168;2023-07-13T02:38:50;15.20;99.90
21672;DHT22;10997;52.242;8.168;2023-07-13T02:43:51;15.20;99.90
21672;DHT22;10997;52.242;8.168;2023-07-13T02:48:51;15.30;99.90
21672;DHT22;10997;52.242;8.168;2023-07-13T02:53:53;15.30;99.90
21672;DHT22;10997;52.242;8.168;2023-07-13T02:58:54;15.30;99.90
21672;DHT22;10997;52.242;8.168;2023-07-13T03:03:55;15.30;99.90
21672;DHT22;10997;52.242;8.168;2023-07-13T03:08:56;15.30;99.90
21672;DHT22;10997;52.242;8.168;2023-07-13T03:13:57;15.40;99.90
21672;DHT22;10997;52.242;8.168;2023-07-13T03:18:58;15.40;99.90
21672;DHT22;10997;52.242;8.168;2023-07-13T03:23:58;15.40;99.90
21672;DHT22;10997;52.242;8.168;2023-07-13T03:28:59;15.50;99.90
21672;DHT22;10997;52.242;8.168;2023-07-13T03:34:00;15.50;99.90
21672;DHT22;10997;52.242;8.168;2023-07-13T03:39:02;15.50;99.90
21672;DHT22;10997;52.242;8.168;2023-07-13T03:44:03;15.50;99.90
21672;DHT22;10997;52.242;8.168;2023-07-13T03:49:04;15.50;99.90
21672;DHT22;10997;52.242;8.168;2023-07-13T03:54:05;15.50;99.90
21672;DHT22;10997;52.242;8.168;2023-07-13T03:59:06;15.40;99.90
21672;DHT22;10997;52.242;8.168;2023-07-13T04:04:07;15.40;99.90
21672;DHT22;10997;52.242;8.168;2023-07-13T04:09:07;15.40;99.90
21672;DHT22;10997;52.242;8.168;2023-07-13T04:14:09;15.30;99.90
21672;DHT22;10997;52.242;8.168;2023-07-13T04:19:10;15.30;99.90
21672;DHT22;10997;52.242;8.168;2023-07-13T04:24:11;15.20;99.90
21672;DHT22;10997;52.242;8.168;2023-07-13T04:29:11;15.20;99.90
21672;DHT22;10997;52.242;8.168;2023-07-13T04:34:12;15.30;99.90
21672;DHT22;10997;52.242;8.168;2023-07-13T04:39:12;15.30;99.90
21672;DHT22;10997;52.242;8.168;2023-07-13T04:44:13;15.40;99.90
21672;DHT22;10997;52.242;8.168;2023-07-13T04:49:13;15.50;99.90
21672;DHT22;10997;52.242;8.168;2023-07-13T04:54:14;15.50;99.90
21672;DHT22;10997;52.242;8.168;2023-07-13T04:59:14;15.50;99.90
21672;DHT22;10997;52.242;8.168;2023-07-13T05:04:15;15.60;99.90
21672;DHT22;10997;52.242;8.168;2023-07-13T05:09:16;15.70;99.90
21672;DHT22;10997;52.242;8.168;2023-07-13T05:14:17;15.80;99.90
21672;DHT22;10997;52.242;8.168;2023-07-13T05:19:17;15.90;99.90
21672;DHT22;10997;52.242;8.168;2023-07-13T05:24:18;16.00;99.90
21672;DHT22;10997;52.242;8.168;2023-07-13T05:29:20;16.10;99.90
21672;DHT22;10997;52.242;8.168;2023-07-13T05:34:21;16.20;99.90
21672;DHT22;10997;52.242;8.168;2023-07-13T05:39:22;16.40;99.90
21672;DHT22;10997;52.242;8.168;2023-07-13T05:44:22;16.40;99.90
21672;DHT22;10997;52.242;8.168;2023-07-13T05:49:23;16.50;99.90
21672;DHT22;10997;52.242;8.168;2023-07-13T05:54:24;16.60;99.90
21672;DHT22;10997;52.242;8.168;2023-07-13T05:59:25;16.70;99.90
21672;DHT22;10997;52.242;8.168;2023-07-13T06:04:26;17.00;99.90
21672;DHT22;10997;52.242;8.168;2023-07-13T06:09:26;17.10;99.90
21672;DHT22;10997;52.242;8.168;2023-07-13T06:14:27;17.00;99.90
21672;DHT22;10997;52.242;8.168;2023-07-13T06:19:29;17.30;99.90
21672;DHT22;10997;52.242;8.168;2023-07-13T06:24:29;17.50;99.90
21672;DHT22;10997;52.242;8.168;2023-07-13T06:29:30;17.50;99.90
21672;DHT22;10997;52.242;8.168;2023-07-13T06:34:31;17.30;99.90
21672;DHT22;10997;52.242;8.168;2023-07-13T06:39:32;17.30;99.90
21672;DHT22;10997;52.242;8.168;2023-07-13T06:44:33;17.20;99.90
21672;DHT22;10997;52.242;8.168;2023-07-13T06:49:33;17.40;99.90
21672;DHT22;10997;52.242;8.168;2023-07-13T06:54:34;17.40;99.90
21672;DHT22;10997;52.242;8.168;2023-07-13T06:59:35;17.50;99.90
21672;DHT22;10997;52.242;8.168;2023-07-13T07:04:36;17.60;99.90
21672;DHT22;10997;52.242;8.168;2023-07-13T07:09:36;17.70;99.90
21672;DHT22;10997;52.242;8.168;2023-07-13T07:14:37;17.80;99.90
21672;DHT22;10997;52.242;8.168;2023-07-13T07:19:38;18.10;99.90
21672;DHT22;10997;52.242;8.168;2023-07-13T07:24:39;18.30;99.90
21672;DHT22;10997;52.242;8.168;2023-07-13T07:29:39;18.40;99.90
21672;DHT22;10997;52.242;8.168;2023-07-13T07:34:40;18.40;99.90
21672;DHT22;10997;52.242;8.168;2023-07-13T07:39:40;18.70;99.90
21672;DHT22;10997;52.242;8.168;2023-07-13T07:44:41;19.00;99.90
21672;DHT22;10997;52.242;8.168;2023-07-13T07:49:42;19.10;99.90
21672;DHT22;10997;52.242;8.168;2023-07-13T07:54:43;19.30;99.90
21672;DHT22;10997;52.242;8.168;2023-07-13T07:59:43;19.30;99.90
21672;DHT22;10997;52.242;8.168;2023-07-13T08:04:44;19.20;99.90
21672;DHT22;10997;52.242;8.168;2023-07-13T08:09:44;19.20;99.90
21672;DHT22;10997;52.242;8.168;2023-07-13T08:14:50;19.50;99.90
21672;DHT22;10997;52.242;8.168;2023-07-13T08:19:53;19.40;99.90
21672;DHT22;10997;52.242;8.168;2023-07-13T08:24:54;19.50;99.90
21672;DHT22;10997;52.242;8.168;2023-07-13T08:29:57;19.80;99.90
21672;DHT22;10997;52.242;8.168;2023-07-13T08:34:58;19.90;99.90
21672;DHT22;10997;52.242;8.168;2023-07-13T08:39:59;20.30;99.90
21672;DHT22;10997;52.242;8.168;2023-07-13T08:50:14;20.10;99.90
21672;DHT22;10997;52.242;8.168;2023-07-13T08:55:33;20.30;99.90
21672;DHT22;10997;52.242;8.168;2023-07-13T09:01:16;20.50;99.90
21672;DHT22;10997;52.242;8.168;2023-07-13T09:06:23;20.40;99.90
21672;DHT22;10997;52.242;8.168;2023-07-13T09:16:37;20.50;99.90
21672;DHT22;10997;52.242;8.168;2023-07-13T09:21:42;20.90;99.90
21672;DHT22;10997;52.242;8.168;2023-07-13T09:26:45;21.40;99.90
21672;DHT22;10997;52.242;8.168;2023-07-13T09:31:49;21.10;99.90
21672;DHT22;10997;52.242;8.168;2023-07-13T09:36:53;21.30;99.90
21672;DHT22;10997;52.242;8.168;2023-07-13T09:42:14;21.30;99.90
21672;DHT22;10997;52.242;8.168;2023-07-13T09:47:18;21.50;99.90
21672;DHT22;10997;52.242;8.168;2023-07-13T09:52:19;21.60;99.90
21672;DHT22;10997;52.242;8.168;2023-07-13T09:57:23;21.90;99.90
21672;DHT22;10997;52.242;8.168;2023-07-13T10:02:34;22.10;99.90
21672;DHT22;10997;52.242;8.168;2023-07-13T10:07:39;22.00;99.90
21672;DHT22;10997;52.242;8.168;2023-07-13T10:12:40;22.00;99.90
21672;DHT22;10997;52.242;8.168;2023-07-13T10:17:41;21.50;99.90
21672;DHT22;10997;52.242;8.168;2023-07-13T10:23:00;21.60;99.90
21672;DHT22;10997;52.242;8.168;2023-07-13T10:28:11;22.00;99.90
21672;DHT22;10997;52.242;8.168;2023-07-13T10:33:15;21.80;99.90
21672;DHT22;10997;52.242;8.168;2023-07-13T10:38:21;22.50;99.90
21672;DHT22;10997;52.242;8.168;2023-07-13T10:43:28;22.10;99.90
21672;DHT22;10997;52.242;8.168;2023-07-13T10:48:32;21.70;99.90
21672;DHT22;10997;52.242;8.168;2023-07-13T10:53:36;21.70;99.90
21672;DHT22;10997;52.242;8.168;2023-07-13T10:58:39;21.60;99.90
21672;DHT22;10997;52.242;8.168;2023-07-13T11:19:08;23.10;99.90
21672;DHT22;10997;52.242;8.168;2023-07-13T11:24:17;23.80;99.90
21672;DHT22;10997;52.242;8.168;2023-07-13T11:34:24;23.30;99.90
21672;DHT22;10997;52.242;8.168;2023-07-13T11:39:35;23.10;99.90
21672;DHT22;10997;52.242;8.168;2023-07-13T11:44:42;22.60;99.90
21672;DHT22;10997;52.242;8.168;2023-07-13T11:49:45;23.10;99.90
21672;DHT22;10997;52.242;8.168;2023-07-13T11:54:55;23.70;99.90
21672;DHT22;10997;52.242;8.168;2023-07-13T11:59:56;23.10;99.90
21672;DHT22;10997;52.242;8.168;2023-07-13T12:04:59;23.30;99.90
21672;DHT22;10997;52.242;8.168;2023-07-13T12:10:22;23.90;99.90
21672;DHT22;10997;52.242;8.168;2023-07-13T12:15:49;23.70;99.90
21672;DHT22;10997;52.242;8.168;2023-07-13T12:20:51;23.10;99.90
21672;DHT22;10997;52.242;8.168;2023-07-13T12:25:53;22.70;99.90
21672;DHT22;10997;52.242;8.168;2023-07-13T12:30:58;23.40;99.90
21672;DHT22;10997;52.242;8.168;2023-07-13T12:36:05;23.80;99.90
21672;DHT22;10997;52.242;8.168;2023-07-13T12:41:08;23.20;99.90
21672;DHT22;10997;52.242;8.168;2023-07-13T12:46:19;22.80;99.90
21672;DHT22;10997;52.242;8.168;2023-07-13T12:51:27;22.70;99.90
21672;DHT22;10997;52.242;8.168;2023-07-13T12:56:28;22.00;99.90
21672;DHT22;10997;52.242;8.168;2023-07-13T13:01:33;20.70;99.90
21672;DHT22;10997;52.242;8.168;2023-07-13T13:06:35;16.20;99.90
21672;DHT22;10997;52.242;8.168;2023-07-13T13:11:36;15.90;99.90
21672;DHT22;10997;52.242;8.168;2023-07-13T13:16:47;16.10;99.90
21672;DHT22;10997;52.242;8.168;2023-07-13T13:21:53;16.30;99.90
21672;DHT22;10997;52.242;8.168;2023-07-13T13:26:54;16.90;99.90
21672;DHT22;10997;52.242;8.168;2023-07-13T13:31:57;17.30;99.90
21672;DHT22;10997;52.242;8.168;2023-07-13T13:36:57;18.00;99.90
21672;DHT22;10997;52.242;8.168;2023-07-13T13:41:58;18.70;99.90
21672;DHT22;10997;52.242;8.168;2023-07-13T13:46:58;19.50;99.90
21672;DHT22;10997;52.242;8.168;2023-07-13T13:52:00;20.40;99.90
21672;DHT22;10997;52.242;8.168;2023-07-13T13:57:00;20.60;99.90
21672;DHT22;10997;52.242;8.168;2023-07-13T14:02:01;20.10;99.90
21672;DHT22;10997;52.242;8.168;2023-07-13T14:07:02;19.60;99.90
21672;DHT22;10997;52.242;8.168;2023-07-13T14:12:03;18.90;99.90
21672;DHT22;10997;52.242;8.168;2023-07-13T14:17:05;18.00;99.90
21672;DHT22;10997;52.242;8.168;2023-07-13T14:22:07;17.60;99.90
21672;DHT22;10997;52.242;8.168;2023-07-13T14:27:12;17.70;99.90
21672;DHT22;10997;52.242;8.168;2023-07-13T14:32:13;18.00;99.90
21672;DHT22;10997;52.242;8.168;2023-07-13T14:37:14;18.40;99.90
21672;DHT22;10997;52.242;8.168;2023-07-13T14:42:16;18.60;99.90
21672;DHT22;10997;52.242;8.168;2023-07-13T14:47:18;18.80;99.90
21672;DHT22;10997;52.242;8.168;2023-07-13T14:52:20;18.90;99.90
21672;DHT22;10997;52.242;8.168;2023-07-13T14:57:21;18.90;99.90
21672;DHT22;10997;52.242;8.168;2023-07-13T15:02:28;19.00;99.90
21672;DHT22;10997;52.242;8.168;2023-07-13T15:07:30;18.90;99.90
21672;DHT22;10997;52.242;8.168;2023-07-13T15:12:30;18.90;99.90
21672;DHT22;10997;52.242;8.168;2023-07-13T15:17:32;18.70;99.90
21672;DHT22;10997;52.242;8.168;2023-07-13T15:22:36;18.70;99.90
21672;DHT22;10997;52.242;8.168;2023-07-13T15:27:38;18.80;99.90
21672;DHT22;10997;52.242;8.168;2023-07-13T15:32:38;18.90;99.90
21672;DHT22;10997;52.242;8.168;2023-07-13T15:37:39;19.00;99.90
21672;DHT22;10997;52.242;8.168;2023-07-13T15:42:44;19.20;99.90
21672;DHT22;10997;52.242;8.168;2023-07-13T15:47:46;19.30;99.90
21672;DHT22;10997;52.242;8.168;2023-07-13T15:52:49;19.60;99.90
21672;DHT22;10997;52.242;8.168;2023-07-13T15:57:52;19.40;99.90
21672;DHT22;10997;52.242;8.168;2023-07-13T16:02:53;19.50;99.90
21672;DHT22;10997;52.242;8.168;2023-07-13T16:07:54;19.60;99.90
21672;DHT22;10997;52.242;8.168;2023-07-13T16:12:56;19.60;99.90
21672;DHT22;10997;52.242;8.168;2023-07-13T16:17:57;19.80;99.90
21672;DHT22;10997;52.242;8.168;2023-07-13T16:22:58;20.40;99.90
21672;DHT22;10997;52.242;8.168;2023-07-13T16:28:03;21.10;99.90
21672;DHT22;10997;52.242;8.168;2023-07-13T16:33:06;21.10;99.90
21672;DHT22;10997;52.242;8.168;2023-07-13T16:38:17;21.30;99.90
21672;DHT22;10997;52.242;8.168;2023-07-13T16:43:19;21.10;99.90
21672;DHT22;10997;52.242;8.168;2023-07-13T16:48:23;21.70;99.90
21672;DHT22;10997;52.242;8.168;2023-07-13T16:53:27;21.80;99.90
21672;DHT22;10997;52.242;8.168;2023-07-13T16:58:30;21.40;99.90
21672;DHT22;10997;52.242;8.168;2023-07-13T17:03:31;21.50;99.90
21672;DHT22;10997;52.242;8.168;2023-07-13T17:08:33;21.60;99.90
21672;DHT22;10997;52.242;8.168;2023-07-13T17:13:33;21.50;99.90
21672;DHT22;10997;52.242;8.168;2023-07-13T17:18:34;21.00;99.90
21672;DHT22;10997;52.242;8.168;2023-07-13T17:23:37;20.80;99.90
21672;DHT22;10997;52.242;8.168;2023-07-13T17:28:40;20.90;99.90
21672;DHT22;10997;52.242;8.168;2023-07-13T17:33:43;21.10;99.90
21672;DHT22;10997;52.242;8.168;2023-07-13T17:38:47;20.80;99.90
21672;DHT22;10997;52.242;8.168;2023-07-13T17:43:56;20.60;99.90
21672;DHT22;10997;52.242;8.168;2023-07-13T17:48:57;20.50;99.90
21672;DHT22;10997;52.242;8.168;2023-07-13T17:53:58;20.10;99.90
21672;DHT22;10997;52.242;8.168;2023-07-13T17:58:59;20.00;99.90
21672;DHT22;10997;52.242;8.168;2023-07-13T18:04:00;19.80;99.90
21672;DHT22;10997;52.242;8.168;2023-07-13T18:09:03;19.60;99.90
21672;DHT22;10997;52.242;8.168;2023-07-13T18:14:04;19.30;99.90
21672;DHT22;10997;52.242;8.168;2023-07-13T18:19:22;19.00;99.90
21672;DHT22;10997;52.242;8.168;2023-07-13T18:24:24;18.60;99.90
21672;DHT22;10997;52.242;8.168;2023-07-13T18:29:26;18.20;99.90
21672;DHT22;10997;52.242;8.168;2023-07-13T18:34:27;17.70;99.90
21672;DHT22;10997;52.242;8.168;2023-07-13T18:39:27;17.50;99.90
21672;DHT22;10997;52.242;8.168;2023-07-13T18:44:28;17.40;99.90
21672;DHT22;10997;52.242;8.168;2023-07-13T18:49:28;17.20;99.90
21672;DHT22;10997;52.242;8.168;2023-07-13T18:54:29;17.10;99.90
21672;DHT22;10997;52.242;8.168;2023-07-13T18:59:29;17.00;99.90
21672;DHT22;10997;52.242;8.168;2023-07-13T19:04:31;17.00;99.90
21672;DHT22;10997;52.242;8.168;2023-07-13T19:09:31;17.00;99.90
21672;DHT22;10997;52.242;8.168;2023-07-13T19:14:33;17.20;99.90
21672;DHT22;10997;52.242;8.168;2023-07-13T19:19:34;17.10;99.90
21672;DHT22;10997;52.242;8.168;2023-07-13T19:24:35;17.00;99.90
21672;DHT22;10997;52.242;8.168;2023-07-13T19:29:36;17.00;99.90
21672;DHT22;10997;52.242;8.168;2023-07-13T19:34:37;16.90;99.90
21672;DHT22;10997;52.242;8.168;2023-07-13T19:39:39;16.80;99.90
21672;DHT22;10997;52.242;8.168;2023-07-13T19:44:41;16.80;99.90
21672;DHT22;10997;52.242;8.168;2023-07-13T19:49:42;16.60;99.90
21672;DHT22;10997;52.242;8.168;2023-07-13T19:54:50;16.60;99.90
21672;DHT22;10997;52.242;8.168;2023-07-13T19:59:54;16.50;99.90
21672;DHT22;10997;52.242;8.168;2023-07-13T20:04:55;16.50;99.90
21672;DHT22;10997;52.242;8.168;2023-07-13T20:09:55;16.60;99.90
21672;DHT22;10997;52.242;8.168;2023-07-13T20:14:56;16.60;99.90
21672;DHT22;10997;52.242;8.168;2023-07-13T20:19:57;16.60;99.90
21672;DHT22;10997;52.242;8.168;2023-07-13T20:24:58;16.50;99.90
21672;DHT22;10997;52.242;8.168;2023-07-13T20:29:58;16.50;99.90
21672;DHT22;10997;52.242;8.168;2023-07-13T20:34:59;16.40;99.90
21672;DHT22;10997;52.242;8.168;2023-07-13T20:40:00;16.40;99.90
21672;DHT22;10997;52.242;8.168;2023-07-13T20:45:01;16.40;99.90
21672;DHT22;10997;52.242;8.168;2023-07-13T20:50:15;16.50;99.90
21672;DHT22;10997;52.242;8.168;2023-07-13T20:55:19;16.40;99.90
21672;DHT22;10997;52.242;8.168;2023-07-13T21:00:24;16.40;99.90
21672;DHT22;10997;52.242;8.168;2023-07-13T21:05:28;16.30;99.90
21672;DHT22;10997;52.242;8.168;2023-07-13T21:10:31;16.20;99.90
21672;DHT22;10997;52.242;8.168;2023-07-13T21:15:32;16.20;99.90
21672;DHT22;10997;52.242;8.168;2023-07-13T21:20:36;16.10;99.90
21672;DHT22;10997;52.242;8.168;2023-07-13T21:25:37;16.00;99.90
21672;DHT22;10997;52.242;8.168;2023-07-13T21:30:40;16.00;99.90
21672;DHT22;10997;52.242;8.168;2023-07-13T21:35:42;15.90;99.90
21672;DHT22;10997;52.242;8.168;2023-07-13T21:40:44;15.80;99.90
21672;DHT22;10997;52.242;8.168;2023-07-13T21:45:46;15.80;99.90
21672;DHT22;10997;52.242;8.168;2023-07-13T21:50:56;15.80;99.90
21672;DHT22;10997;52.242;8.168;2023-07-13T21:56:00;15.70;99.90
21672;DHT22;10997;52.242;8.168;2023-07-13T22:01:03;15.70;99.90
21672;DHT22;10997;52.242;8.168;2023-07-13T22:06:04;15.60;99.90
21672;DHT22;10997;52.242;8.168;2023-07-13T22:11:10;15.50;99.90
21672;DHT22;10997;52.242;8.168;2023-07-13T22:21:21;15.50;99.90
21672;DHT22;10997;52.242;8.168;2023-07-13T22:26:24;15.50;99.90
21672;DHT22;10997;52.242;8.168;2023-07-13T22:31:27;15.50;99.90
21672;DHT22;10997;52.242;8.168;2023-07-13T22:36:28;15.50;99.90
21672;DHT22;10997;52.242;8.168;2023-07-13T22:41:29;15.50;99.90
21672;DHT22;10997;52.242;8.168;2023-07-13T22:46:31;15.40;99.90
21672;DHT22;10997;52.242;8.168;2023-07-13T22:51:32;15.40;99.90
21672;DHT22;10997;52.242;8.168;2023-07-13T22:56:32;15.40;99.90
21672;DHT22;10997;52.242;8.168;2023-07-13T23:01:34;15.30;99.90
21672;DHT22;10997;52.242;8.168;2023-07-13T23:06:35;15.30;99.90
21672;DHT22;10997;52.242;8.168;2023-07-13T23:11:36;15.30;99.90
21672;DHT22;10997;52.242;8.168;2023-07-13T23:16:36;15.20;99.90
21672;DHT22;10997;52.242;8.168;2023-07-13T23:21:38;15.20;99.90
21672;DHT22;10997;52.242;8.168;2023-07-13T23:26:39;15.20;99.90
21672;DHT22;10997;52.242;8.168;2023-07-13T23:31:39;15.20;99.90
21672;DHT22;10997;52.242;8.168;2023-07-13T23:36:40;15.10;99.90
21672;DHT22;10997;52.242;8.168;2023-07-13T23:41:42;15.10;99.90
21672;DHT22;10997;52.242;8.168;2023-07-13T23:46:48;15.10;99.90
21672;DHT22;10997;52.242;8.168;2023-07-13T23:51:54;15.10;99.90
21672;DHT22;10997;52.242;8.168;2023-07-13T23:56:56;15.10;99.90
